createdAt,value
2018-01-25T00:00:30.549Z,939.20
2018-01-25T00:02:59.730Z,953.30
2018-01-25T00:05:28.873Z,954.00
2018-01-25T00:07:58.064Z,949.47
2018-01-25T00:10:27.200Z,958.93
2018-01-25T00:12:56.371Z,959.00
2018-01-25T00:15:25.505Z,964.83
2018-01-25T00:17:54.681Z,971.27
2018-01-25T00:20:23.873Z,982.83
2018-01-25T00:22:53.015Z,979.70
2018-01-25T00:25:22.189Z,986.33
2018-01-25T00:27:51.334Z,996.60
2018-01-25T00:30:20.509Z,999.87
2018-01-25T00:32:49.665Z,1001.17
2018-01-25T00:35:18.851Z,1001.90
2018-01-25T00:37:48.042Z,973.27
2018-01-25T00:40:17.177Z,987.20
2018-01-25T00:42:46.378Z,986.27
2018-01-25T00:45:15.564Z,966.30
2018-01-25T00:47:44.705Z,959.77
2018-01-25T00:50:13.851Z,930.80
2018-01-25T00:52:42.989Z,956.30
2018-01-25T00:55:12.342Z,957.30
2018-01-25T00:57:41.485Z,960.43
2018-01-25T01:00:10.640Z,959.53
2018-01-25T01:02:39.786Z,940.73
2018-01-25T01:05:08.969Z,948.67
2018-01-25T01:07:38.145Z,944.63
2018-01-25T01:10:07.290Z,901.47
2018-01-25T01:12:36.476Z,881.30
2018-01-25T01:15:05.613Z,875.80
2018-01-25T01:17:34.797Z,878.13
2018-01-25T01:20:03.979Z,863.07
2018-01-25T01:22:33.129Z,846.37
2018-01-25T01:25:02.309Z,821.13
2018-01-25T01:27:31.449Z,846.93
2018-01-25T01:30:00.657Z,834.23
2018-01-25T01:32:29.798Z,841.07
2018-01-25T01:34:58.979Z,842.30
2018-01-25T01:37:28.158Z,862.47
2018-01-25T01:39:57.305Z,889.93
2018-01-25T01:42:26.482Z,895.17
2018-01-25T01:44:55.681Z,893.03
2018-01-25T01:47:24.817Z,889.33
2018-01-25T01:49:53.962Z,875.00
2018-01-25T01:52:23.170Z,904.10
2018-01-25T01:54:52.314Z,914.77
2018-01-25T01:57:21.461Z,918.53
2018-01-25T01:59:50.662Z,895.60
2018-01-25T02:02:19.801Z,835.93
2018-01-25T02:04:48.953Z,862.13
2018-01-25T02:07:18.097Z,872.63
2018-01-25T02:09:47.269Z,876.23
2018-01-25T02:12:16.400Z,897.87
2018-01-25T02:14:45.583Z,912.27
2018-01-25T02:17:14.723Z,933.97
2018-01-25T02:19:43.900Z,944.23
2018-01-25T02:22:13.050Z,962.73
2018-01-25T02:24:42.247Z,968.40
2018-01-25T02:27:11.391Z,971.83
2018-01-25T02:29:40.537Z,985.83
2018-01-25T02:32:09.724Z,989.27
2018-01-25T02:34:38.892Z,982.00
2018-01-25T02:37:08.074Z,986.40
2018-01-25T02:39:37.221Z,985.67
2018-01-25T02:42:06.393Z,984.13
2018-01-25T02:44:35.563Z,980.57
2018-01-25T02:47:04.721Z,980.77
2018-01-25T02:49:33.905Z,965.27
2018-01-25T02:52:03.074Z,968.87
2018-01-25T02:54:32.260Z,968.50
2018-01-25T02:57:01.428Z,964.47
2018-01-25T02:59:30.607Z,968.00
2018-01-25T03:01:59.762Z,970.87
2018-01-25T03:04:28.950Z,973.70
2018-01-25T03:06:58.093Z,975.73
2018-01-25T03:09:27.248Z,962.60
2018-01-25T03:11:56.433Z,963.40
2018-01-25T03:14:25.596Z,957.63
2018-01-25T03:16:54.762Z,955.83
2018-01-25T03:19:23.953Z,956.20
2018-01-25T03:21:53.092Z,968.40
2018-01-25T03:24:22.266Z,948.27
2018-01-25T03:26:51.436Z,925.27
2018-01-25T03:29:20.594Z,907.67
2018-01-25T03:31:49.733Z,891.90
2018-01-25T03:34:18.968Z,894.50
2018-01-25T03:36:48.134Z,885.33
2018-01-25T03:39:17.285Z,885.90
2018-01-25T03:41:46.416Z,877.37
2018-01-25T03:44:15.598Z,866.63
2018-01-25T03:46:44.778Z,867.47
2018-01-25T03:49:13.916Z,885.13
2018-01-25T03:51:43.145Z,888.43
2018-01-25T03:54:12.323Z,896.10
2018-01-25T03:56:41.485Z,901.50
2018-01-25T03:59:10.657Z,904.63
2018-01-25T04:01:39.822Z,911.60
2018-01-25T04:04:09.000Z,927.93
2018-01-25T04:06:38.176Z,932.90
2018-01-25T04:09:07.366Z,944.13
2018-01-25T04:11:36.504Z,954.43
2018-01-25T04:14:05.650Z,955.63
2018-01-25T04:16:34.797Z,948.10
2018-01-25T04:19:03.967Z,949.27
2018-01-25T04:21:33.114Z,950.63
2018-01-25T04:24:02.295Z,948.07
2018-01-25T04:26:31.484Z,945.13
2018-01-25T04:29:00.667Z,944.83
2018-01-25T04:31:29.848Z,943.17
2018-01-25T04:33:58.981Z,949.10
2018-01-25T04:36:28.181Z,966.93
2018-01-25T04:38:57.497Z,964.77
2018-01-25T04:41:26.644Z,969.87
2018-01-25T04:43:55.784Z,986.73
2018-01-25T04:46:24.936Z,983.10
2018-01-25T04:48:54.079Z,972.67
2018-01-25T04:51:23.261Z,992.17
2018-01-25T04:53:52.438Z,988.03
2018-01-25T04:56:21.581Z,991.97
2018-01-25T04:58:50.768Z,989.13
2018-01-25T05:01:19.946Z,980.93
2018-01-25T05:03:49.083Z,980.93
2018-01-25T05:06:18.238Z,974.30
2018-01-25T05:08:47.409Z,974.60
2018-01-25T05:11:16.586Z,952.17
2018-01-25T05:13:45.761Z,958.47
2018-01-25T05:16:14.937Z,964.73
2018-01-25T05:18:44.073Z,964.67
2018-01-25T05:21:13.231Z,966.83
2018-01-25T05:23:42.400Z,973.60
2018-01-25T05:26:11.535Z,969.73
2018-01-25T05:28:40.703Z,957.97
2018-01-25T05:31:09.841Z,968.00
2018-01-25T05:33:39.016Z,973.40
2018-01-25T05:36:08.161Z,951.13
2018-01-25T05:38:37.343Z,942.63
2018-01-25T05:41:06.592Z,930.00
2018-01-25T05:43:35.741Z,932.63
2018-01-25T05:46:04.929Z,935.83
2018-01-25T05:48:34.086Z,947.47
2018-01-25T05:51:03.261Z,958.13
2018-01-25T05:53:32.443Z,951.00
2018-01-25T05:56:01.625Z,954.47
2018-01-25T05:58:30.815Z,957.03
2018-01-25T06:00:59.993Z,969.37
2018-01-25T06:03:29.181Z,948.33
2018-01-25T06:05:58.320Z,948.77
2018-01-25T06:08:27.465Z,952.03
2018-01-25T06:10:56.661Z,957.53
2018-01-25T06:13:25.823Z,952.67
2018-01-25T06:15:55.023Z,962.13
2018-01-25T06:18:24.206Z,956.20
2018-01-25T06:20:53.367Z,970.63
2018-01-25T06:23:23.307Z,980.97
2018-01-25T06:25:52.761Z,969.80
2018-01-25T06:28:21.908Z,962.50
2018-01-25T06:30:51.087Z,959.57
2018-01-25T06:33:20.256Z,970.03
2018-01-25T06:35:49.455Z,968.60
2018-01-25T06:38:18.633Z,971.27
2018-01-25T06:40:47.776Z,967.80
2018-01-25T06:43:16.961Z,959.43
2018-01-25T06:45:46.102Z,957.40
2018-01-25T06:48:15.252Z,972.87
2018-01-25T06:50:44.421Z,974.33
2018-01-25T06:53:13.612Z,984.33
2018-01-25T06:55:42.758Z,982.43
2018-01-25T06:58:11.950Z,980.07
2018-01-25T07:00:41.092Z,978.70
2018-01-25T07:03:10.288Z,966.57
2018-01-25T07:05:39.448Z,960.90
2018-01-25T07:08:08.594Z,957.23
2018-01-25T07:10:37.789Z,958.87
2018-01-25T07:13:06.929Z,955.97
2018-01-25T07:15:36.078Z,946.40
2018-01-25T07:18:05.281Z,929.20
2018-01-25T07:20:34.425Z,919.83
2018-01-25T07:23:03.578Z,933.07
2018-01-25T07:25:32.781Z,929.63
2018-01-25T07:28:01.936Z,914.83
2018-01-25T07:30:31.111Z,900.07
2018-01-25T07:35:38.109Z,862.03
2018-01-25T07:38:07.241Z,857.17
2018-01-25T07:40:36.440Z,886.03
2018-01-25T07:43:05.625Z,872.77
2018-01-25T07:45:34.770Z,882.90
2018-01-25T07:48:03.990Z,889.67
2018-01-25T07:50:33.135Z,907.60
2018-01-25T07:53:02.288Z,924.33
2018-01-25T07:55:31.434Z,937.67
2018-01-25T08:00:50.338Z,963.20
2018-01-25T08:03:19.511Z,980.87
2018-01-25T08:05:48.694Z,995.70
2018-01-25T08:08:17.865Z,1009.53
2018-01-25T08:10:47.022Z,1035.23
2018-01-25T08:13:21.935Z,1037.47
2018-01-25T08:15:51.113Z,1078.17
2018-01-25T08:18:20.256Z,1079.97
2018-01-25T08:20:49.401Z,1085.70
2018-01-25T08:23:18.554Z,1079.20
2018-01-25T08:25:47.731Z,1074.80
2018-01-25T08:28:16.913Z,1074.00
2018-01-25T08:30:46.268Z,1078.03
2018-01-25T08:33:15.402Z,1079.53
2018-01-25T08:35:44.577Z,1074.17
2018-01-25T08:38:13.722Z,1087.47
2018-01-25T08:40:42.911Z,1090.00
2018-01-25T08:43:12.065Z,1086.33
2018-01-25T08:45:41.258Z,1092.13
2018-01-25T08:48:10.404Z,1083.53
2018-01-25T08:50:39.606Z,1082.43
2018-01-25T08:53:08.777Z,1084.13
2018-01-25T08:55:37.950Z,1078.27
2018-01-25T08:58:07.098Z,1081.47
2018-01-25T09:00:36.372Z,1085.47
2018-01-25T09:03:05.559Z,1078.43
2018-01-25T09:05:34.695Z,1068.73
2018-01-25T09:08:03.882Z,1066.33
2018-01-25T09:10:33.086Z,1059.07
2018-01-25T09:13:02.250Z,1062.27
2018-01-25T09:15:31.400Z,1058.60
2018-01-25T09:18:00.602Z,1045.40
2018-01-25T09:20:29.742Z,1040.40
2018-01-25T09:22:58.906Z,1043.77
2018-01-25T09:25:28.058Z,986.63
2018-01-25T09:27:57.204Z,980.10
2018-01-25T09:30:26.424Z,982.23
2018-01-25T09:32:55.561Z,921.77
2018-01-25T09:35:24.716Z,901.33
2018-01-25T09:37:53.857Z,875.10
2018-01-25T09:40:23.043Z,869.50
2018-01-25T09:42:52.197Z,835.47
2018-01-25T09:45:21.387Z,843.53
2018-01-25T09:47:50.537Z,839.13
2018-01-25T09:50:19.691Z,802.43
2018-01-25T09:52:48.892Z,805.07
2018-01-25T09:55:18.052Z,790.67
2018-01-25T09:57:47.198Z,765.93
2018-01-25T10:00:16.540Z,771.43
2018-01-25T10:02:45.718Z,748.43
2018-01-25T10:05:14.889Z,739.80
2018-01-25T10:07:44.050Z,734.20
2018-01-25T10:10:13.240Z,759.23
2018-01-25T10:12:42.433Z,685.47
2018-01-25T10:15:11.585Z,679.20
2018-01-25T10:17:40.762Z,645.27
2018-01-25T10:20:09.937Z,584.20
2018-01-25T10:22:39.082Z,574.93
2018-01-25T10:25:08.255Z,655.57
2018-01-25T10:27:37.389Z,658.67
2018-01-25T10:30:06.581Z,668.00
2018-01-25T10:32:35.719Z,623.73
2018-01-25T10:35:04.895Z,636.47
2018-01-25T10:37:34.034Z,660.87
2018-01-25T10:40:03.224Z,616.60
2018-01-25T10:42:32.367Z,641.67
2018-01-25T10:45:01.541Z,431.70
2018-01-25T10:47:30.692Z,292.53
2018-01-25T10:49:59.882Z,175.67
2018-01-25T10:52:29.057Z,145.43
2018-01-25T10:54:58.222Z,137.80
2018-01-25T10:57:27.362Z,148.50
2018-01-25T10:59:56.553Z,174.03
2018-01-25T11:02:25.693Z,209.53
2018-01-25T11:04:54.869Z,249.00
2018-01-25T11:07:24.058Z,333.40
2018-01-25T11:09:53.227Z,449.33
2018-01-25T11:12:22.399Z,390.93
2018-01-25T11:14:51.550Z,358.20
2018-01-25T11:17:20.706Z,474.17
2018-01-25T11:19:49.884Z,483.47
2018-01-25T11:22:19.037Z,408.90
2018-01-25T11:24:48.230Z,459.73
2018-01-25T11:27:17.410Z,449.70
2018-01-25T11:29:46.584Z,299.37
2018-01-25T11:32:15.735Z,400.73
2018-01-25T11:34:44.929Z,160.30
2018-01-25T11:37:14.177Z,170.03
2018-01-25T11:39:43.323Z,184.27
2018-01-25T11:42:12.527Z,219.27
2018-01-25T11:44:41.674Z,370.53
2018-01-25T11:47:10.863Z,307.40
2018-01-25T11:49:40.253Z,339.70
2018-01-25T11:52:09.410Z,291.90
2018-01-25T11:54:38.557Z,230.07
2018-01-25T11:57:07.745Z,190.83
2018-01-25T11:59:36.907Z,142.87
2018-01-25T12:02:06.120Z,137.37
2018-01-25T12:04:35.268Z,142.33
2018-01-25T12:07:04.472Z,144.47
2018-01-25T12:09:33.603Z,170.30
2018-01-25T12:12:02.786Z,163.40
2018-01-25T12:14:31.963Z,132.87
2018-01-25T12:17:01.142Z,139.63
2018-01-25T12:19:30.325Z,138.10
2018-01-25T12:21:59.485Z,134.30
2018-01-25T12:24:28.630Z,132.37
2018-01-25T12:26:57.812Z,131.50
2018-01-25T12:29:26.993Z,123.97
2018-01-25T12:31:56.137Z,131.43
2018-01-25T12:34:25.329Z,120.67
2018-01-25T12:36:54.469Z,119.30
2018-01-25T12:39:23.613Z,119.27
2018-01-25T12:41:52.793Z,118.27
2018-01-25T12:44:21.931Z,118.43
2018-01-25T12:46:51.117Z,120.17
2018-01-25T12:49:20.255Z,119.53
2018-01-25T12:51:49.445Z,119.33
2018-01-25T12:54:18.593Z,122.47
2018-01-25T12:56:47.783Z,119.90
2018-01-25T12:59:17.035Z,121.67
2018-01-25T13:01:46.174Z,120.33
2018-01-25T13:04:15.322Z,120.20
2018-01-25T13:06:44.502Z,122.20
2018-01-25T13:09:13.640Z,130.57
2018-01-25T13:11:42.812Z,121.30
2018-01-25T13:14:11.978Z,122.80
2018-01-25T13:16:41.156Z,119.43
2018-01-25T13:19:10.307Z,123.10
2018-01-25T13:21:39.491Z,122.77
2018-01-25T13:24:08.628Z,120.97
2018-01-25T13:26:37.843Z,117.53
2018-01-25T13:29:06.973Z,122.87
2018-01-25T13:31:36.158Z,122.07
2018-01-25T13:34:05.307Z,120.80
2018-01-25T13:36:34.587Z,125.10
2018-01-25T13:39:03.719Z,120.77
2018-01-25T13:41:32.898Z,118.60
2018-01-25T13:44:02.045Z,122.37
2018-01-25T13:46:31.234Z,126.57
2018-01-25T13:49:00.393Z,138.00
2018-01-25T13:51:29.529Z,136.30
2018-01-25T13:53:58.717Z,138.30
2018-01-25T13:56:27.859Z,128.67
2018-01-25T13:58:57.028Z,126.57
2018-01-25T14:01:26.166Z,121.87
2018-01-25T14:03:55.345Z,122.70
2018-01-25T14:06:24.542Z,123.03
2018-01-25T14:08:53.736Z,123.73
2018-01-25T14:11:22.890Z,124.57
2018-01-25T14:13:52.111Z,127.37
2018-01-25T14:16:21.274Z,140.30
2018-01-25T14:18:50.417Z,156.77
2018-01-25T14:21:19.607Z,180.87
2018-01-25T14:23:48.753Z,205.60
2018-01-25T14:26:17.910Z,138.97
2018-01-25T14:28:47.061Z,181.03
2018-01-25T14:31:16.244Z,201.43
2018-01-25T14:33:45.388Z,240.27
2018-01-25T14:36:14.540Z,232.87
2018-01-25T14:38:43.757Z,263.13
2018-01-25T14:41:12.888Z,358.83
2018-01-25T14:43:42.078Z,414.30
2018-01-25T14:46:11.233Z,466.40
2018-01-25T14:48:40.389Z,547.83
2018-01-25T14:51:09.566Z,546.30
2018-01-25T14:53:38.721Z,546.67
2018-01-25T14:56:07.897Z,582.33
2018-01-25T14:58:37.036Z,570.97
2018-01-25T15:01:06.218Z,585.33
2018-01-25T15:03:35.369Z,632.37
2018-01-25T15:06:04.535Z,603.13
2018-01-25T15:08:33.673Z,620.23
2018-01-25T15:11:02.860Z,657.70
2018-01-25T15:13:32.050Z,679.23
2018-01-25T15:16:01.197Z,732.43
2018-01-25T15:18:30.369Z,739.90
2018-01-25T15:20:59.542Z,740.87
2018-01-25T15:23:28.734Z,780.47
2018-01-25T15:25:59.827Z,798.33
2018-01-25T15:28:28.825Z,804.90
2018-01-25T15:30:57.972Z,790.37
2018-01-25T15:33:27.143Z,808.17
2018-01-25T15:35:56.359Z,783.37
2018-01-25T15:38:25.496Z,814.47
2018-01-25T15:40:54.669Z,801.50
2018-01-25T15:43:23.825Z,794.80
2018-01-25T15:45:53.020Z,809.53
2018-01-25T15:48:22.166Z,814.40
2018-01-25T15:50:51.348Z,805.87
2018-01-25T15:53:20.541Z,814.43
2018-01-25T15:55:49.702Z,827.50
2018-01-25T15:58:18.897Z,807.63
2018-01-25T16:00:48.042Z,803.30
2018-01-25T16:03:17.235Z,797.10
2018-01-25T16:05:46.383Z,775.07
2018-01-25T16:08:15.586Z,759.77
2018-01-25T16:10:44.767Z,732.80
2018-01-25T16:13:13.956Z,716.03
2018-01-25T16:15:43.124Z,714.87
2018-01-25T16:18:18.297Z,678.10
2018-01-25T16:20:47.486Z,606.50
2018-01-25T16:23:16.693Z,593.07
2018-01-25T16:25:45.860Z,575.27
2018-01-25T16:28:21.926Z,546.87
2018-01-25T16:30:51.080Z,532.83
2018-01-25T16:33:20.229Z,509.77
2018-01-25T16:35:49.381Z,451.83
2018-01-25T16:38:18.578Z,409.87
2018-01-25T16:40:47.733Z,412.53
2018-01-25T16:43:16.930Z,382.83
2018-01-25T16:45:46.125Z,337.13
2018-01-25T16:48:15.300Z,348.67
2018-01-25T16:50:44.481Z,282.63
2018-01-25T16:53:13.679Z,287.30
2018-01-25T16:55:42.837Z,247.73
2018-01-25T16:58:11.991Z,215.50
2018-01-25T17:00:41.182Z,192.97
2018-01-25T17:03:10.318Z,170.13
2018-01-25T17:05:39.522Z,160.50
2018-01-25T17:08:08.674Z,150.10
2018-01-25T17:10:37.821Z,154.20
2018-01-25T17:13:06.975Z,144.07
2018-01-25T17:15:36.117Z,144.43
2018-01-25T17:18:05.317Z,142.97
2018-01-25T17:20:34.472Z,142.67
2018-01-25T17:23:03.631Z,141.30
2018-01-25T17:25:32.811Z,147.17
2018-01-25T17:28:01.992Z,145.83
2018-01-25T17:30:31.189Z,148.83
2018-01-25T17:33:00.385Z,144.30
2018-01-25T17:35:29.524Z,140.63
2018-01-25T17:37:58.672Z,140.17
2018-01-25T17:40:27.882Z,136.37
2018-01-25T17:42:57.024Z,140.57
2018-01-25T17:45:26.194Z,138.23
2018-01-25T17:47:55.354Z,137.17
2018-01-25T17:50:24.533Z,140.87
2018-01-25T17:52:53.675Z,144.93
2018-01-25T17:55:22.854Z,131.07
2018-01-25T17:57:52.033Z,133.70
2018-01-25T18:00:21.177Z,137.47
2018-01-25T18:02:50.358Z,134.67
2018-01-25T18:05:19.541Z,133.47
2018-01-25T18:07:48.721Z,133.87
2018-01-25T18:10:17.862Z,137.60
2018-01-25T18:12:47.019Z,145.13
2018-01-25T18:15:16.175Z,137.50
2018-01-25T18:17:45.386Z,133.40
2018-01-25T18:20:14.529Z,138.07
2018-01-25T18:22:43.690Z,136.97
2018-01-25T18:25:12.857Z,142.07
2018-01-25T18:27:41.996Z,143.50
2018-01-25T18:30:11.184Z,136.47
2018-01-25T18:32:40.343Z,137.73
2018-01-25T18:35:09.495Z,137.23
2018-01-25T18:37:38.633Z,134.83
2018-01-25T18:40:07.821Z,139.37
2018-01-25T18:42:36.981Z,139.87
2018-01-25T18:45:06.211Z,137.70
2018-01-25T18:47:35.355Z,140.03
2018-01-25T18:50:04.550Z,138.27
2018-01-25T18:52:33.697Z,135.50
2018-01-25T18:55:02.873Z,142.67
2018-01-25T18:57:32.025Z,137.77
2018-01-25T19:00:01.158Z,140.17
2018-01-25T19:02:30.360Z,137.73
2018-01-25T19:04:59.549Z,140.17
2018-01-25T19:07:28.725Z,144.10
2018-01-25T19:09:57.877Z,136.40
2018-01-25T19:12:27.074Z,143.77
2018-01-25T19:14:56.212Z,139.67
2018-01-25T19:17:25.412Z,140.67
2018-01-25T19:19:54.554Z,140.40
2018-01-25T19:22:23.701Z,143.17
2018-01-25T19:24:52.948Z,139.50
2018-01-25T19:27:22.145Z,145.40
2018-01-25T19:29:51.282Z,146.07
2018-01-25T19:32:20.462Z,142.77
2018-01-25T19:34:49.666Z,143.70
2018-01-25T19:37:18.859Z,147.77
2018-01-25T19:39:48.030Z,148.37
2018-01-25T19:42:17.209Z,147.37
2018-01-25T19:44:46.389Z,147.30
2018-01-25T19:47:15.594Z,159.97
2018-01-25T19:49:44.741Z,156.87
2018-01-25T19:52:13.887Z,153.60
2018-01-25T19:54:43.221Z,156.97
2018-01-25T19:57:12.434Z,157.37
2018-01-25T19:59:41.573Z,161.53
2018-01-25T20:02:10.727Z,152.63
2018-01-25T20:04:39.911Z,158.17
2018-01-25T20:07:09.073Z,160.17
2018-01-25T20:09:38.763Z,169.63
2018-01-25T20:12:08.009Z,163.50
2018-01-25T20:14:37.173Z,160.27
2018-01-25T20:17:07.009Z,164.93
2018-01-25T20:19:36.251Z,167.37
2018-01-25T20:22:05.771Z,170.37
2018-01-25T20:24:35.014Z,172.63
2018-01-25T20:27:04.177Z,159.67
2018-01-25T20:29:33.335Z,185.07
2018-01-25T20:32:02.570Z,182.37
2018-01-25T20:34:31.740Z,193.33
2018-01-25T20:37:00.937Z,174.57
2018-01-25T20:39:30.151Z,163.73
2018-01-25T20:41:59.297Z,182.03
2018-01-25T20:44:28.756Z,177.13
2018-01-25T20:46:58.307Z,182.70
2018-01-25T20:49:27.577Z,162.60
2018-01-25T20:51:56.716Z,160.17
2018-01-25T20:54:26.107Z,169.77
2018-01-25T20:56:55.305Z,167.47
2018-01-25T20:59:24.758Z,199.03
2018-01-25T21:01:54.017Z,198.30
2018-01-25T21:04:23.440Z,225.43
2018-01-25T21:06:52.642Z,233.37
2018-01-25T21:09:21.841Z,237.43
2018-01-25T21:11:51.033Z,259.00
2018-01-25T21:14:20.189Z,271.87
2018-01-25T21:16:49.382Z,246.50
2018-01-25T21:19:18.562Z,239.53
2018-01-25T21:21:47.751Z,216.47
2018-01-25T21:24:16.892Z,211.57
2018-01-25T21:26:46.105Z,193.23
2018-01-25T21:29:15.269Z,213.73
2018-01-25T21:31:44.414Z,229.60
2018-01-25T21:34:13.592Z,234.67
2018-01-25T21:36:42.781Z,221.17
2018-01-25T21:39:11.925Z,228.30
2018-01-25T21:41:41.127Z,214.67
2018-01-25T21:44:10.321Z,225.37
2018-01-25T21:46:39.466Z,190.03
2018-01-25T21:49:08.621Z,163.60
2018-01-25T21:51:37.765Z,183.97
2018-01-25T21:54:06.951Z,187.33
2018-01-25T21:56:36.125Z,167.37
2018-01-25T21:59:05.277Z,175.33
2018-01-25T22:01:34.445Z,150.97
2018-01-25T22:04:03.636Z,143.37
2018-01-25T22:06:32.814Z,137.83
2018-01-25T22:09:02.035Z,138.20
2018-01-25T22:11:31.234Z,142.90
2018-01-25T22:14:00.396Z,146.03
2018-01-25T22:16:29.568Z,147.17
2018-01-25T22:18:58.738Z,157.83
2018-01-25T22:21:27.940Z,149.73
2018-01-25T22:23:57.114Z,151.20
2018-01-25T22:26:26.262Z,146.23
2018-01-25T22:28:55.473Z,143.70
2018-01-25T22:31:24.610Z,140.47
2018-01-25T22:33:53.778Z,138.20
2018-01-25T22:36:22.914Z,141.80
2018-01-25T22:38:52.109Z,147.17
2018-01-25T22:41:21.251Z,144.93
2018-01-25T22:43:50.397Z,150.77
2018-01-25T22:46:19.532Z,144.10
2018-01-25T22:48:48.719Z,144.37
2018-01-25T22:51:17.857Z,141.73
2018-01-25T22:53:47.044Z,143.17
2018-01-25T22:56:16.170Z,144.77
2018-01-25T22:58:45.318Z,141.13
2018-01-25T23:01:18.365Z,146.97
2018-01-25T23:03:47.549Z,141.93
2018-01-25T23:06:16.685Z,144.70
2018-01-25T23:08:45.856Z,150.53
2018-01-25T23:11:15.021Z,152.60
2018-01-25T23:13:44.205Z,165.07
2018-01-25T23:16:13.378Z,202.33
2018-01-25T23:18:42.561Z,245.47
2018-01-25T23:21:11.740Z,242.67
2018-01-25T23:23:40.890Z,243.23
2018-01-25T23:26:10.097Z,278.57
2018-01-25T23:28:39.250Z,291.80
2018-01-25T23:31:08.412Z,286.27
2018-01-25T23:33:37.637Z,258.83
2018-01-25T23:36:06.767Z,283.70
2018-01-25T23:38:35.928Z,289.13
2018-01-25T23:41:05.116Z,278.13
2018-01-25T23:43:34.279Z,282.83
2018-01-25T23:46:03.451Z,266.87
2018-01-25T23:48:32.594Z,259.63
2018-01-25T23:51:01.779Z,263.67
2018-01-25T23:53:30.976Z,295.77
2018-01-25T23:56:00.105Z,300.37
2018-01-25T23:58:29.268Z,349.27
